sensor_id;sensor_type;location;lat;lon;timestamp;P1;durP1;ratioP1;P2;durP2;ratioP2
48629;SDS011;34426;52.180;4.462;2022-10-17T00:01:42;15.88;;;8.05;;
48629;SDS011;34426;52.180;4.462;2022-10-17T00:04:09;18.50;;;7.93;;
48629;SDS011;34426;52.180;4.462;2022-10-17T00:06:37;13.07;;;8.05;;
48629;SDS011;34426;52.180;4.462;2022-10-17T00:09:03;15.13;;;7.80;;
48629;SDS011;34426;52.180;4.462;2022-10-17T00:11:29;17.17;;;8.05;;
48629;SDS011;34426;52.180;4.462;2022-10-17T00:13:55;12.77;;;8.32;;
48629;SDS011;34426;52.180;4.462;2022-10-17T00:16:25;17.38;;;8.13;;
48629;SDS011;34426;52.180;4.462;2022-10-17T00:18:51;12.80;;;8.57;;
48629;SDS011;34426;52.180;4.462;2022-10-17T00:21:17;10.60;;;8.10;;
48629;SDS011;34426;52.180;4.462;2022-10-17T00:23:46;16.73;;;9.00;;
48629;SDS011;34426;52.180;4.462;2022-10-17T00:26:12;19.63;;;8.95;;
48629;SDS011;34426;52.180;4.462;2022-10-17T00:28:39;14.13;;;9.00;;
48629;SDS011;34426;52.180;4.462;2022-10-17T00:31:05;16.08;;;9.57;;
48629;SDS011;34426;52.180;4.462;2022-10-17T00:33:33;16.13;;;8.95;;
48629;SDS011;34426;52.180;4.462;2022-10-17T00:36:03;17.17;;;8.57;;
48629;SDS011;34426;52.180;4.462;2022-10-17T00:38:29;15.27;;;9.20;;
48629;SDS011;34426;52.180;4.462;2022-10-17T00:40:58;12.52;;;9.07;;
48629;SDS011;34426;52.180;4.462;2022-10-17T00:43:24;15.90;;;10.18;;
48629;SDS011;34426;52.180;4.462;2022-10-17T00:45:50;22.10;;;10.15;;
48629;SDS011;34426;52.180;4.462;2022-10-17T00:48:16;19.20;;;9.60;;
48629;SDS011;34426;52.180;4.462;2022-10-17T00:50:44;14.45;;;10.10;;
48629;SDS011;34426;52.180;4.462;2022-10-17T00:53:11;22.33;;;10.18;;
48629;SDS011;34426;52.180;4.462;2022-10-17T00:55:37;19.80;;;10.88;;
48629;SDS011;34426;52.180;4.462;2022-10-17T00:58:09;19.73;;;10.38;;
48629;SDS011;34426;52.180;4.462;2022-10-17T01:00:35;16.08;;;10.32;;
48629;SDS011;34426;52.180;4.462;2022-10-17T01:03:01;23.73;;;11.38;;
48629;SDS011;34426;52.180;4.462;2022-10-17T01:05:28;17.30;;;11.70;;
48629;SDS011;34426;52.180;4.462;2022-10-17T01:07:55;22.75;;;12.25;;
48629;SDS011;34426;52.180;4.462;2022-10-17T01:10:21;14.05;;;11.45;;
48629;SDS011;34426;52.180;4.462;2022-10-17T01:12:56;18.80;;;12.52;;
48629;SDS011;34426;52.180;4.462;2022-10-17T01:15:30;17.77;;;12.32;;
48629;SDS011;34426;52.180;4.462;2022-10-17T01:18:03;17.13;;;13.15;;
48629;SDS011;34426;52.180;4.462;2022-10-17T01:23:26;30.77;;;14.38;;
48629;SDS011;34426;52.180;4.462;2022-10-17T01:25:55;18.27;;;12.65;;
48629;SDS011;34426;52.180;4.462;2022-10-17T01:28:28;24.40;;;13.68;;
48629;SDS011;34426;52.180;4.462;2022-10-17T01:31:01;14.88;;;13.15;;
48629;SDS011;34426;52.180;4.462;2022-10-17T01:33:31;21.88;;;14.23;;
48629;SDS011;34426;52.180;4.462;2022-10-17T01:36:00;26.10;;;13.82;;
48629;SDS011;34426;52.180;4.462;2022-10-17T01:38:30;21.13;;;13.57;;
48629;SDS011;34426;52.180;4.462;2022-10-17T01:40:59;18.02;;;14.98;;
48629;SDS011;34426;52.180;4.462;2022-10-17T01:43:30;23.58;;;13.68;;
48629;SDS011;34426;52.180;4.462;2022-10-17T01:45:57;21.77;;;12.95;;
48629;SDS011;34426;52.180;4.462;2022-10-17T01:48:28;16.10;;;12.25;;
48629;SDS011;34426;52.180;4.462;2022-10-17T01:50:56;19.25;;;12.90;;
48629;SDS011;34426;52.180;4.462;2022-10-17T01:53:26;18.13;;;12.70;;
48629;SDS011;34426;52.180;4.462;2022-10-17T01:55:53;18.02;;;13.07;;
48629;SDS011;34426;52.180;4.462;2022-10-17T01:58:22;22.48;;;14.05;;
48629;SDS011;34426;52.180;4.462;2022-10-17T02:00:50;18.77;;;13.48;;
48629;SDS011;34426;52.180;4.462;2022-10-17T02:03:17;17.40;;;12.40;;
48629;SDS011;34426;52.180;4.462;2022-10-17T02:05:46;18.35;;;13.90;;
48629;SDS011;34426;52.180;4.462;2022-10-17T02:08:12;22.27;;;13.27;;
48629;SDS011;34426;52.180;4.462;2022-10-17T02:10:40;18.98;;;13.13;;
48629;SDS011;34426;52.180;4.462;2022-10-17T02:13:08;20.27;;;14.07;;
48629;SDS011;34426;52.180;4.462;2022-10-17T02:15:45;20.52;;;13.73;;
48629;SDS011;34426;52.180;4.462;2022-10-17T02:18:15;22.10;;;14.15;;
48629;SDS011;34426;52.180;4.462;2022-10-17T02:20:48;21.52;;;13.50;;
48629;SDS011;34426;52.180;4.462;2022-10-17T02:23:16;19.83;;;13.68;;
48629;SDS011;34426;52.180;4.462;2022-10-17T02:25:46;19.95;;;14.05;;
48629;SDS011;34426;52.180;4.462;2022-10-17T02:28:17;21.17;;;13.88;;
48629;SDS011;34426;52.180;4.462;2022-10-17T02:30:44;17.40;;;14.02;;
48629;SDS011;34426;52.180;4.462;2022-10-17T02:33:14;26.80;;;15.70;;
48629;SDS011;34426;52.180;4.462;2022-10-17T02:35:42;23.00;;;14.60;;
48629;SDS011;34426;52.180;4.462;2022-10-17T02:38:12;24.67;;;14.43;;
48629;SDS011;34426;52.180;4.462;2022-10-17T02:40:39;14.48;;;12.82;;
48629;SDS011;34426;52.180;4.462;2022-10-17T02:43:05;16.90;;;13.80;;
48629;SDS011;34426;52.180;4.462;2022-10-17T02:45:32;18.10;;;13.15;;
48629;SDS011;34426;52.180;4.462;2022-10-17T02:48:01;20.77;;;14.65;;
48629;SDS011;34426;52.180;4.462;2022-10-17T02:50:42;19.30;;;14.43;;
48629;SDS011;34426;52.180;4.462;2022-10-17T02:53:16;19.30;;;14.30;;
48629;SDS011;34426;52.180;4.462;2022-10-17T02:55:46;17.42;;;13.45;;
48629;SDS011;34426;52.180;4.462;2022-10-17T02:58:15;17.45;;;14.00;;
48629;SDS011;34426;52.180;4.462;2022-10-17T03:00:43;19.38;;;13.20;;
48629;SDS011;34426;52.180;4.462;2022-10-17T03:03:20;15.00;;;12.85;;
48629;SDS011;34426;52.180;4.462;2022-10-17T03:05:46;16.80;;;13.30;;
48629;SDS011;34426;52.180;4.462;2022-10-17T03:08:14;21.60;;;14.25;;
48629;SDS011;34426;52.180;4.462;2022-10-17T03:10:41;15.07;;;12.90;;
48629;SDS011;34426;52.180;4.462;2022-10-17T03:13:07;17.38;;;12.77;;
48629;SDS011;34426;52.180;4.462;2022-10-17T03:15:33;18.08;;;12.13;;
48629;SDS011;34426;52.180;4.462;2022-10-17T03:18:00;25.35;;;12.70;;
48629;SDS011;34426;52.180;4.462;2022-10-17T03:20:26;15.15;;;13.30;;
48629;SDS011;34426;52.180;4.462;2022-10-17T03:22:52;16.50;;;12.85;;
48629;SDS011;34426;52.180;4.462;2022-10-17T03:25:20;13.95;;;11.60;;
48629;SDS011;34426;52.180;4.462;2022-10-17T03:27:46;18.70;;;13.23;;
48629;SDS011;34426;52.180;4.462;2022-10-17T03:30:13;20.73;;;12.90;;
48629;SDS011;34426;52.180;4.462;2022-10-17T03:32:39;19.38;;;11.98;;
48629;SDS011;34426;52.180;4.462;2022-10-17T03:35:05;16.95;;;12.13;;
48629;SDS011;34426;52.180;4.462;2022-10-17T03:37:32;18.63;;;12.30;;
48629;SDS011;34426;52.180;4.462;2022-10-17T03:39:58;19.27;;;12.35;;
48629;SDS011;34426;52.180;4.462;2022-10-17T03:42:27;16.48;;;11.55;;
48629;SDS011;34426;52.180;4.462;2022-10-17T03:44:53;20.30;;;11.50;;
48629;SDS011;34426;52.180;4.462;2022-10-17T03:47:20;15.70;;;11.43;;
48629;SDS011;34426;52.180;4.462;2022-10-17T03:49:46;17.50;;;11.38;;
48629;SDS011;34426;52.180;4.462;2022-10-17T03:52:12;16.95;;;11.18;;
48629;SDS011;34426;52.180;4.462;2022-10-17T03:54:39;15.70;;;10.75;;
48629;SDS011;34426;52.180;4.462;2022-10-17T03:57:06;21.70;;;11.00;;
48629;SDS011;34426;52.180;4.462;2022-10-17T03:59:34;21.88;;;11.60;;
48629;SDS011;34426;52.180;4.462;2022-10-17T04:02:00;19.85;;;11.20;;
48629;SDS011;34426;52.180;4.462;2022-10-17T04:04:27;15.90;;;10.68;;
48629;SDS011;34426;52.180;4.462;2022-10-17T04:06:53;26.52;;;11.50;;
48629;SDS011;34426;52.180;4.462;2022-10-17T04:09:20;18.35;;;12.77;;
48629;SDS011;34426;52.180;4.462;2022-10-17T04:11:49;22.35;;;12.10;;
48629;SDS011;34426;52.180;4.462;2022-10-17T04:14:15;19.65;;;11.43;;
48629;SDS011;34426;52.180;4.462;2022-10-17T04:16:44;17.10;;;10.85;;
48629;SDS011;34426;52.180;4.462;2022-10-17T04:19:11;19.35;;;11.15;;
48629;SDS011;34426;52.180;4.462;2022-10-17T04:21:37;21.45;;;11.05;;
48629;SDS011;34426;52.180;4.462;2022-10-17T04:24:04;19.92;;;11.45;;
48629;SDS011;34426;52.180;4.462;2022-10-17T04:26:31;17.30;;;10.27;;
48629;SDS011;34426;52.180;4.462;2022-10-17T04:28:57;18.13;;;11.68;;
48629;SDS011;34426;52.180;4.462;2022-10-17T04:31:23;17.88;;;11.50;;
48629;SDS011;34426;52.180;4.462;2022-10-17T04:33:52;20.20;;;12.25;;
48629;SDS011;34426;52.180;4.462;2022-10-17T04:36:18;18.38;;;10.48;;
48629;SDS011;34426;52.180;4.462;2022-10-17T04:38:44;13.43;;;10.10;;
48629;SDS011;34426;52.180;4.462;2022-10-17T04:41:12;21.52;;;11.13;;
48629;SDS011;34426;52.180;4.462;2022-10-17T04:43:38;17.98;;;10.90;;
48629;SDS011;34426;52.180;4.462;2022-10-17T04:46:06;16.58;;;10.80;;
48629;SDS011;34426;52.180;4.462;2022-10-17T04:48:33;20.20;;;10.75;;
48629;SDS011;34426;52.180;4.462;2022-10-17T04:51:02;16.92;;;10.20;;
48629;SDS011;34426;52.180;4.462;2022-10-17T04:53:30;13.15;;;9.63;;
48629;SDS011;34426;52.180;4.462;2022-10-17T04:55:56;20.17;;;10.27;;
48629;SDS011;34426;52.180;4.462;2022-10-17T04:58:22;18.58;;;12.23;;
48629;SDS011;34426;52.180;4.462;2022-10-17T05:00:49;18.70;;;10.35;;
48629;SDS011;34426;52.180;4.462;2022-10-17T05:03:15;14.80;;;10.65;;
48629;SDS011;34426;52.180;4.462;2022-10-17T05:05:41;23.60;;;11.65;;
48629;SDS011;34426;52.180;4.462;2022-10-17T05:08:12;16.38;;;10.55;;
48629;SDS011;34426;52.180;4.462;2022-10-17T05:10:41;15.15;;;10.43;;
48629;SDS011;34426;52.180;4.462;2022-10-17T05:13:07;21.60;;;11.20;;
48629;SDS011;34426;52.180;4.462;2022-10-17T05:15:32;17.48;;;10.50;;
48629;SDS011;34426;52.180;4.462;2022-10-17T05:17:58;17.02;;;10.30;;
48629;SDS011;34426;52.180;4.462;2022-10-17T05:20:23;16.50;;;10.30;;
48629;SDS011;34426;52.180;4.462;2022-10-17T05:22:49;17.88;;;10.77;;
48629;SDS011;34426;52.180;4.462;2022-10-17T05:25:18;14.77;;;10.55;;
48629;SDS011;34426;52.180;4.462;2022-10-17T05:27:47;18.80;;;10.63;;
48629;SDS011;34426;52.180;4.462;2022-10-17T05:30:12;15.50;;;9.73;;
48629;SDS011;34426;52.180;4.462;2022-10-17T05:32:38;15.45;;;10.55;;
48629;SDS011;34426;52.180;4.462;2022-10-17T05:35:03;14.23;;;10.43;;
48629;SDS011;34426;52.180;4.462;2022-10-17T05:37:29;12.20;;;9.43;;
48629;SDS011;34426;52.180;4.462;2022-10-17T05:39:55;21.27;;;10.48;;
48629;SDS011;34426;52.180;4.462;2022-10-17T05:42:21;14.57;;;10.25;;
48629;SDS011;34426;52.180;4.462;2022-10-17T05:44:47;15.15;;;10.13;;
48629;SDS011;34426;52.180;4.462;2022-10-17T05:47:12;19.77;;;10.27;;
48629;SDS011;34426;52.180;4.462;2022-10-17T05:49:39;14.68;;;9.88;;
48629;SDS011;34426;52.180;4.462;2022-10-17T05:52:05;18.35;;;10.13;;
48629;SDS011;34426;52.180;4.462;2022-10-17T05:54:30;15.68;;;10.35;;
48629;SDS011;34426;52.180;4.462;2022-10-17T05:56:55;21.45;;;10.57;;
48629;SDS011;34426;52.180;4.462;2022-10-17T05:59:25;12.00;;;9.82;;
48629;SDS011;34426;52.180;4.462;2022-10-17T06:01:50;17.70;;;10.02;;
48629;SDS011;34426;52.180;4.462;2022-10-17T06:04:16;13.10;;;10.32;;
48629;SDS011;34426;52.180;4.462;2022-10-17T06:06:43;19.83;;;10.48;;
48629;SDS011;34426;52.180;4.462;2022-10-17T06:09:08;24.02;;;10.60;;
48629;SDS011;34426;52.180;4.462;2022-10-17T06:11:34;21.65;;;11.23;;
48629;SDS011;34426;52.180;4.462;2022-10-17T06:13:59;20.20;;;10.02;;
48629;SDS011;34426;52.180;4.462;2022-10-17T06:16:26;14.27;;;10.43;;
48629;SDS011;34426;52.180;4.462;2022-10-17T06:18:52;14.07;;;9.60;;
48629;SDS011;34426;52.180;4.462;2022-10-17T06:21:18;21.67;;;10.68;;
48629;SDS011;34426;52.180;4.462;2022-10-17T06:23:46;17.08;;;10.75;;
48629;SDS011;34426;52.180;4.462;2022-10-17T06:26:12;19.05;;;10.60;;
48629;SDS011;34426;52.180;4.462;2022-10-17T06:28:37;22.58;;;10.88;;
48629;SDS011;34426;52.180;4.462;2022-10-17T06:31:04;18.30;;;11.02;;
48629;SDS011;34426;52.180;4.462;2022-10-17T06:33:30;16.58;;;9.48;;
48629;SDS011;34426;52.180;4.462;2022-10-17T06:35:55;18.42;;;10.23;;
48629;SDS011;34426;52.180;4.462;2022-10-17T06:38:21;22.57;;;11.43;;
48629;SDS011;34426;52.180;4.462;2022-10-17T06:40:46;15.60;;;10.68;;
48629;SDS011;34426;52.180;4.462;2022-10-17T06:43:12;20.87;;;10.97;;
48629;SDS011;34426;52.180;4.462;2022-10-17T06:45:37;15.20;;;10.30;;
48629;SDS011;34426;52.180;4.462;2022-10-17T06:48:02;14.43;;;9.77;;
48629;SDS011;34426;52.180;4.462;2022-10-17T06:50:29;15.55;;;10.57;;
48629;SDS011;34426;52.180;4.462;2022-10-17T06:52:54;20.98;;;10.15;;
48629;SDS011;34426;52.180;4.462;2022-10-17T06:55:19;22.17;;;10.73;;
48629;SDS011;34426;52.180;4.462;2022-10-17T06:57:44;14.50;;;10.00;;
48629;SDS011;34426;52.180;4.462;2022-10-17T07:00:10;21.20;;;10.70;;
48629;SDS011;34426;52.180;4.462;2022-10-17T07:02:36;23.08;;;10.27;;
48629;SDS011;34426;52.180;4.462;2022-10-17T07:05:01;17.67;;;11.07;;
48629;SDS011;34426;52.180;4.462;2022-10-17T07:07:30;15.13;;;9.88;;
48629;SDS011;34426;52.180;4.462;2022-10-17T07:09:55;16.83;;;10.77;;
48629;SDS011;34426;52.180;4.462;2022-10-17T07:12:20;22.60;;;11.33;;
48629;SDS011;34426;52.180;4.462;2022-10-17T07:14:45;27.67;;;10.85;;
48629;SDS011;34426;52.180;4.462;2022-10-17T07:17:11;16.07;;;10.50;;
48629;SDS011;34426;52.180;4.462;2022-10-17T07:19:36;15.67;;;9.87;;
48629;SDS011;34426;52.180;4.462;2022-10-17T07:22:01;21.73;;;9.77;;
48629;SDS011;34426;52.180;4.462;2022-10-17T07:24:28;14.43;;;9.97;;
48629;SDS011;34426;52.180;4.462;2022-10-17T07:26:53;19.13;;;10.30;;
48629;SDS011;34426;52.180;4.462;2022-10-17T07:29:18;18.08;;;9.18;;
48629;SDS011;34426;52.180;4.462;2022-10-17T07:31:43;16.77;;;10.80;;
48629;SDS011;34426;52.180;4.462;2022-10-17T07:34:09;17.00;;;9.27;;
48629;SDS011;34426;52.180;4.462;2022-10-17T07:36:34;20.97;;;9.63;;
48629;SDS011;34426;52.180;4.462;2022-10-17T07:38:59;20.47;;;8.60;;
48629;SDS011;34426;52.180;4.462;2022-10-17T07:41:26;14.93;;;9.90;;
48629;SDS011;34426;52.180;4.462;2022-10-17T07:43:51;15.00;;;9.10;;
48629;SDS011;34426;52.180;4.462;2022-10-17T07:46:16;20.23;;;9.03;;
48629;SDS011;34426;52.180;4.462;2022-10-17T07:48:41;16.03;;;9.17;;
48629;SDS011;34426;52.180;4.462;2022-10-17T07:51:07;12.83;;;8.53;;
48629;SDS011;34426;52.180;4.462;2022-10-17T07:53:33;16.55;;;9.40;;
48629;SDS011;34426;52.180;4.462;2022-10-17T07:56:01;16.50;;;9.65;;
48629;SDS011;34426;52.180;4.462;2022-10-17T07:58:28;21.92;;;9.65;;
48629;SDS011;34426;52.180;4.462;2022-10-17T08:00:53;16.23;;;9.05;;
48629;SDS011;34426;52.180;4.462;2022-10-17T08:03:18;15.70;;;9.10;;
48629;SDS011;34426;52.180;4.462;2022-10-17T08:05:44;18.73;;;9.83;;
48629;SDS011;34426;52.180;4.462;2022-10-17T08:08:09;14.50;;;9.32;;
48629;SDS011;34426;52.180;4.462;2022-10-17T08:10:34;20.80;;;10.73;;
48629;SDS011;34426;52.180;4.462;2022-10-17T08:13:00;16.20;;;9.25;;
48629;SDS011;34426;52.180;4.462;2022-10-17T08:15:27;15.85;;;9.90;;
48629;SDS011;34426;52.180;4.462;2022-10-17T08:17:52;15.25;;;9.80;;
48629;SDS011;34426;52.180;4.462;2022-10-17T08:20:17;19.90;;;10.53;;
48629;SDS011;34426;52.180;4.462;2022-10-17T08:22:42;17.83;;;10.27;;
48629;SDS011;34426;52.180;4.462;2022-10-17T08:25:14;17.92;;;10.32;;
48629;SDS011;34426;52.180;4.462;2022-10-17T08:27:40;12.73;;;9.10;;
48629;SDS011;34426;52.180;4.462;2022-10-17T08:30:05;20.23;;;9.73;;
48629;SDS011;34426;52.180;4.462;2022-10-17T08:32:32;15.57;;;8.70;;
48629;SDS011;34426;52.180;4.462;2022-10-17T08:34:57;22.15;;;9.45;;
48629;SDS011;34426;52.180;4.462;2022-10-17T08:37:22;14.27;;;9.17;;
48629;SDS011;34426;52.180;4.462;2022-10-17T08:39:48;18.67;;;9.63;;
48629;SDS011;34426;52.180;4.462;2022-10-17T08:42:21;15.77;;;9.93;;
48629;SDS011;34426;52.180;4.462;2022-10-17T08:44:50;18.52;;;9.25;;
48629;SDS011;34426;52.180;4.462;2022-10-17T08:47:19;19.42;;;9.57;;
48629;SDS011;34426;52.180;4.462;2022-10-17T08:49:47;17.90;;;9.20;;
48629;SDS011;34426;52.180;4.462;2022-10-17T08:52:15;17.67;;;9.02;;
48629;SDS011;34426;52.180;4.462;2022-10-17T08:54:44;19.23;;;8.60;;
48629;SDS011;34426;52.180;4.462;2022-10-17T08:57:11;15.60;;;8.80;;
48629;SDS011;34426;52.180;4.462;2022-10-17T08:59:37;12.98;;;7.80;;
48629;SDS011;34426;52.180;4.462;2022-10-17T09:02:05;12.15;;;7.97;;
48629;SDS011;34426;52.180;4.462;2022-10-17T09:04:44;12.00;;;7.47;;
48629;SDS011;34426;52.180;4.462;2022-10-17T09:07:16;13.00;;;7.65;;
48629;SDS011;34426;52.180;4.462;2022-10-17T09:09:45;16.65;;;7.97;;
48629;SDS011;34426;52.180;4.462;2022-10-17T09:12:16;16.23;;;7.53;;
48629;SDS011;34426;52.180;4.462;2022-10-17T09:14:49;12.05;;;7.70;;
48629;SDS011;34426;52.180;4.462;2022-10-17T09:17:19;14.63;;;7.45;;
48629;SDS011;34426;52.180;4.462;2022-10-17T09:19:57;11.27;;;7.70;;
48629;SDS011;34426;52.180;4.462;2022-10-17T09:22:25;18.75;;;8.40;;
48629;SDS011;34426;52.180;4.462;2022-10-17T09:24:52;15.95;;;7.97;;
48629;SDS011;34426;52.180;4.462;2022-10-17T09:27:21;10.80;;;7.85;;
48629;SDS011;34426;52.180;4.462;2022-10-17T09:29:47;15.35;;;8.13;;
48629;SDS011;34426;52.180;4.462;2022-10-17T09:32:14;10.82;;;7.22;;
48629;SDS011;34426;52.180;4.462;2022-10-17T09:34:41;9.52;;;7.25;;
48629;SDS011;34426;52.180;4.462;2022-10-17T09:37:08;14.82;;;7.70;;
48629;SDS011;34426;52.180;4.462;2022-10-17T09:39:36;19.08;;;7.07;;
48629;SDS011;34426;52.180;4.462;2022-10-17T09:42:01;12.75;;;6.88;;
48629;SDS011;34426;52.180;4.462;2022-10-17T09:44:28;13.82;;;7.32;;
48629;SDS011;34426;52.180;4.462;2022-10-17T09:47:02;12.18;;;6.93;;
48629;SDS011;34426;52.180;4.462;2022-10-17T09:49:31;12.32;;;6.65;;
48629;SDS011;34426;52.180;4.462;2022-10-17T09:51:57;13.52;;;6.57;;
48629;SDS011;34426;52.180;4.462;2022-10-17T09:54:24;11.23;;;5.78;;
48629;SDS011;34426;52.180;4.462;2022-10-17T09:56:56;11.23;;;6.35;;
48629;SDS011;34426;52.180;4.462;2022-10-17T09:59:28;10.98;;;5.40;;
48629;SDS011;34426;52.180;4.462;2022-10-17T10:01:54;16.80;;;4.43;;
48629;SDS011;34426;52.180;4.462;2022-10-17T10:04:31;8.23;;;3.38;;
48629;SDS011;34426;52.180;4.462;2022-10-17T10:07:00;10.18;;;3.47;;
48629;SDS011;34426;52.180;4.462;2022-10-17T10:09:27;8.98;;;3.92;;
48629;SDS011;34426;52.180;4.462;2022-10-17T10:11:54;6.65;;;3.60;;
48629;SDS011;34426;52.180;4.462;2022-10-17T10:14:22;7.13;;;3.00;;
48629;SDS011;34426;52.180;4.462;2022-10-17T10:16:48;7.72;;;2.70;;
48629;SDS011;34426;52.180;4.462;2022-10-17T10:19:18;5.15;;;2.33;;
48629;SDS011;34426;52.180;4.462;2022-10-17T10:21:48;9.77;;;2.28;;
48629;SDS011;34426;52.180;4.462;2022-10-17T10:24:18;6.35;;;2.20;;
48629;SDS011;34426;52.180;4.462;2022-10-17T10:26:44;5.60;;;2.40;;
48629;SDS011;34426;52.180;4.462;2022-10-17T10:29:18;6.45;;;1.55;;
48629;SDS011;34426;52.180;4.462;2022-10-17T10:31:45;8.75;;;2.10;;
48629;SDS011;34426;52.180;4.462;2022-10-17T10:34:13;4.63;;;1.45;;
48629;SDS011;34426;52.180;4.462;2022-10-17T10:36:53;4.75;;;2.00;;
48629;SDS011;34426;52.180;4.462;2022-10-17T10:42:03;5.97;;;1.98;;
48629;SDS011;34426;52.180;4.462;2022-10-17T10:44:30;7.70;;;2.00;;
48629;SDS011;34426;52.180;4.462;2022-10-17T10:47:07;6.45;;;1.90;;
48629;SDS011;34426;52.180;4.462;2022-10-17T10:49:33;7.68;;;1.73;;
48629;SDS011;34426;52.180;4.462;2022-10-17T10:51:58;3.77;;;1.47;;
48629;SDS011;34426;52.180;4.462;2022-10-17T10:54:25;5.60;;;1.60;;
48629;SDS011;34426;52.180;4.462;2022-10-17T10:56:53;5.05;;;1.67;;
48629;SDS011;34426;52.180;4.462;2022-10-17T10:59:19;6.25;;;1.85;;
48629;SDS011;34426;52.180;4.462;2022-10-17T11:01:47;9.40;;;2.45;;
48629;SDS011;34426;52.180;4.462;2022-10-17T11:04:27;7.38;;;2.22;;
48629;SDS011;34426;52.180;4.462;2022-10-17T11:06:57;5.97;;;2.00;;
48629;SDS011;34426;52.180;4.462;2022-10-17T11:09:27;6.43;;;2.28;;
48629;SDS011;34426;52.180;4.462;2022-10-17T11:11:57;3.90;;;2.05;;
48629;SDS011;34426;52.180;4.462;2022-10-17T11:14:26;15.40;;;3.05;;
48629;SDS011;34426;52.180;4.462;2022-10-17T11:16:56;6.43;;;2.67;;
48629;SDS011;34426;52.180;4.462;2022-10-17T11:19:28;6.78;;;3.28;;
48629;SDS011;34426;52.180;4.462;2022-10-17T11:21:59;10.50;;;3.13;;
48629;SDS011;34426;52.180;4.462;2022-10-17T11:24:26;9.68;;;3.20;;
48629;SDS011;34426;52.180;4.462;2022-10-17T11:26:54;10.30;;;2.63;;
48629;SDS011;34426;52.180;4.462;2022-10-17T11:29:20;8.23;;;3.30;;
48629;SDS011;34426;52.180;4.462;2022-10-17T11:31:48;5.22;;;2.42;;
48629;SDS011;34426;52.180;4.462;2022-10-17T11:34:15;7.70;;;2.63;;
48629;SDS011;34426;52.180;4.462;2022-10-17T11:36:45;4.72;;;2.65;;
48629;SDS011;34426;52.180;4.462;2022-10-17T11:39:12;6.72;;;2.65;;
48629;SDS011;34426;52.180;4.462;2022-10-17T11:41:40;7.00;;;2.53;;
48629;SDS011;34426;52.180;4.462;2022-10-17T11:44:10;7.95;;;3.00;;
48629;SDS011;34426;52.180;4.462;2022-10-17T11:46:37;7.15;;;2.53;;
48629;SDS011;34426;52.180;4.462;2022-10-17T11:49:06;11.10;;;2.38;;
48629;SDS011;34426;52.180;4.462;2022-10-17T11:51:35;5.72;;;2.33;;
48629;SDS011;34426;52.180;4.462;2022-10-17T11:54:03;5.85;;;2.00;;
48629;SDS011;34426;52.180;4.462;2022-10-17T11:56:33;6.90;;;1.95;;
48629;SDS011;34426;52.180;4.462;2022-10-17T11:59:07;4.72;;;1.88;;
48629;SDS011;34426;52.180;4.462;2022-10-17T12:01:37;7.18;;;1.77;;
48629;SDS011;34426;52.180;4.462;2022-10-17T12:04:11;2.65;;;1.40;;
48629;SDS011;34426;52.180;4.462;2022-10-17T12:06:50;6.43;;;1.90;;
48629;SDS011;34426;52.180;4.462;2022-10-17T12:09:22;4.15;;;1.80;;
48629;SDS011;34426;52.180;4.462;2022-10-17T12:11:50;4.38;;;1.42;;
48629;SDS011;34426;52.180;4.462;2022-10-17T12:14:35;7.00;;;1.77;;
48629;SDS011;34426;52.180;4.462;2022-10-17T12:17:01;5.20;;;1.77;;
48629;SDS011;34426;52.180;4.462;2022-10-17T12:19:30;7.97;;;1.85;;
48629;SDS011;34426;52.180;4.462;2022-10-17T12:21:56;5.57;;;1.70;;
48629;SDS011;34426;52.180;4.462;2022-10-17T12:24:26;3.92;;;1.65;;
48629;SDS011;34426;52.180;4.462;2022-10-17T12:26:53;6.00;;;1.73;;
48629;SDS011;34426;52.180;4.462;2022-10-17T12:29:22;10.37;;;1.50;;
48629;SDS011;34426;52.180;4.462;2022-10-17T12:31:49;4.03;;;1.48;;
48629;SDS011;34426;52.180;4.462;2022-10-17T12:34:15;5.45;;;1.48;;
48629;SDS011;34426;52.180;4.462;2022-10-17T12:36:41;7.05;;;1.67;;
48629;SDS011;34426;52.180;4.462;2022-10-17T12:41:55;2.75;;;1.52;;
48629;SDS011;34426;52.180;4.462;2022-10-17T12:44:35;5.32;;;1.48;;
48629;SDS011;34426;52.180;4.462;2022-10-17T12:49:41;4.13;;;1.63;;
48629;SDS011;34426;52.180;4.462;2022-10-17T12:54:54;5.65;;;1.75;;
48629;SDS011;34426;52.180;4.462;2022-10-17T12:57:22;3.63;;;1.83;;
48629;SDS011;34426;52.180;4.462;2022-10-17T12:59:48;5.80;;;1.60;;
48629;SDS011;34426;52.180;4.462;2022-10-17T13:02:16;5.70;;;2.05;;
48629;SDS011;34426;52.180;4.462;2022-10-17T13:04:42;4.78;;;1.60;;
48629;SDS011;34426;52.180;4.462;2022-10-17T13:07:11;5.53;;;2.00;;
48629;SDS011;34426;52.180;4.462;2022-10-17T13:12:08;9.20;;;2.10;;
48629;SDS011;34426;52.180;4.462;2022-10-17T13:14:37;5.05;;;1.42;;
48629;SDS011;34426;52.180;4.462;2022-10-17T13:17:03;5.20;;;1.73;;
48629;SDS011;34426;52.180;4.462;2022-10-17T13:19:29;7.72;;;1.50;;
48629;SDS011;34426;52.180;4.462;2022-10-17T13:21:55;7.57;;;1.65;;
48629;SDS011;34426;52.180;4.462;2022-10-17T13:24:22;3.05;;;1.73;;
48629;SDS011;34426;52.180;4.462;2022-10-17T13:26:47;6.10;;;1.70;;
48629;SDS011;34426;52.180;4.462;2022-10-17T13:29:13;4.97;;;1.67;;
48629;SDS011;34426;52.180;4.462;2022-10-17T13:31:42;6.03;;;1.90;;
48629;SDS011;34426;52.180;4.462;2022-10-17T13:34:14;12.10;;;1.70;;
48629;SDS011;34426;52.180;4.462;2022-10-17T13:36:40;3.88;;;1.80;;
48629;SDS011;34426;52.180;4.462;2022-10-17T13:39:06;6.35;;;1.80;;
48629;SDS011;34426;52.180;4.462;2022-10-17T13:41:32;5.78;;;1.92;;
48629;SDS011;34426;52.180;4.462;2022-10-17T13:43:57;9.73;;;1.88;;
48629;SDS011;34426;52.180;4.462;2022-10-17T13:46:25;6.88;;;1.98;;
48629;SDS011;34426;52.180;4.462;2022-10-17T13:48:52;5.55;;;1.70;;
48629;SDS011;34426;52.180;4.462;2022-10-17T13:51:18;5.68;;;2.03;;
48629;SDS011;34426;52.180;4.462;2022-10-17T13:53:43;10.65;;;2.05;;
48629;SDS011;34426;52.180;4.462;2022-10-17T13:56:16;8.67;;;2.10;;
48629;SDS011;34426;52.180;4.462;2022-10-17T13:58:43;5.63;;;1.75;;
48629;SDS011;34426;52.180;4.462;2022-10-17T14:01:08;7.65;;;2.03;;
48629;SDS011;34426;52.180;4.462;2022-10-17T14:03:34;11.52;;;2.58;;
48629;SDS011;34426;52.180;4.462;2022-10-17T14:06:02;8.70;;;2.10;;
48629;SDS011;34426;52.180;4.462;2022-10-17T14:08:28;5.80;;;2.42;;
48629;SDS011;34426;52.180;4.462;2022-10-17T14:10:54;6.18;;;1.70;;
48629;SDS011;34426;52.180;4.462;2022-10-17T14:13:20;6.72;;;1.88;;
48629;SDS011;34426;52.180;4.462;2022-10-17T14:15:46;6.78;;;1.88;;
48629;SDS011;34426;52.180;4.462;2022-10-17T14:18:13;7.78;;;2.30;;
48629;SDS011;34426;52.180;4.462;2022-10-17T14:20:41;10.80;;;2.25;;
48629;SDS011;34426;52.180;4.462;2022-10-17T14:23:25;15.48;;;2.50;;
48629;SDS011;34426;52.180;4.462;2022-10-17T14:26:02;7.38;;;2.20;;
48629;SDS011;34426;52.180;4.462;2022-10-17T14:28:27;6.38;;;2.08;;
48629;SDS011;34426;52.180;4.462;2022-10-17T14:30:53;17.45;;;3.22;;
48629;SDS011;34426;52.180;4.462;2022-10-17T14:33:20;9.50;;;2.20;;
48629;SDS011;34426;52.180;4.462;2022-10-17T14:35:48;17.27;;;2.63;;
48629;SDS011;34426;52.180;4.462;2022-10-17T14:38:13;6.55;;;1.88;;
48629;SDS011;34426;52.180;4.462;2022-10-17T14:40:47;8.30;;;2.40;;
48629;SDS011;34426;52.180;4.462;2022-10-17T14:43:22;9.40;;;2.15;;
48629;SDS011;34426;52.180;4.462;2022-10-17T14:45:48;8.63;;;2.40;;
48629;SDS011;34426;52.180;4.462;2022-10-17T14:48:14;8.68;;;2.42;;
48629;SDS011;34426;52.180;4.462;2022-10-17T14:50:40;10.75;;;2.13;;
48629;SDS011;34426;52.180;4.462;2022-10-17T14:53:06;9.68;;;2.50;;